Time;durP1;ratioP1;P1;durP2;ratioP2;P2;SDS_P1;SDS_P2;PMS_P1;PMS_P2;Temp;Humidity;BMP_temperature;BMP_pressure;BME280_temperature;BME280_humidity;BME280_pressure;Samples;Min_cycle;Max_cycle;Signal;HPM_P1;HPM_P2
2023/07/04 00:01:48;;;;;;;;;7.00;6.00;;;;;22.16;43.14;101081.84;5038094;28;45268;-65
2023/07/04 00:04:17;;;;;;;;;7.00;6.00;;;;;22.08;43.07;101070.69;5036069;28;45474;-65
2023/07/04 00:06:43;;;;;;;;;4.50;4.50;;;;;21.96;42.99;101048.03;5036594;28;47360;-65
2023/07/04 00:09:09;;;;;;;;;3.75;3.75;;;;;21.79;43.56;101026.72;5023047;28;45397;-65
2023/07/04 00:11:34;;;;;;;;;5.25;4.25;;;;;21.82;43.64;101038.22;5035442;28;45447;-65
2023/07/04 00:14:00;;;;;;;;;5.00;4.50;;;;;22.07;43.73;101079.84;5033639;28;45348;-65
2023/07/04 00:16:25;;;;;;;;;5.00;4.00;;;;;21.71;43.50;101018.25;5028095;28;47414;-65
2023/07/04 00:18:51;;;;;;;;;5.75;5.75;;;;;22.02;43.46;101079.34;5039379;28;45686;-65
2023/07/04 00:21:17;;;;;;;;;6.75;5.25;;;;;21.99;43.44;101088.56;5034066;28;45351;-65
2023/07/04 00:23:55;;;;;;;;;7.00;6.00;;;;;21.75;43.72;101045.09;5037715;28;45611;-65
2023/07/04 00:26:23;;;;;;;;;6.50;5.00;;;;;21.81;43.68;101054.63;5032264;28;45539;-65
2023/07/04 00:28:49;;;;;;;;;5.25;5.25;;;;;21.89;43.98;101075.81;5010913;28;45402;-65
2023/07/04 00:31:23;;;;;;;;;6.00;4.25;;;;;21.85;44.12;101075.13;5036547;28;45502;-65
2023/07/04 00:33:53;;;;;;;;;6.25;5.00;;;;;21.74;43.80;101062.38;5027739;28;45454;-65
2023/07/04 00:36:19;;;;;;;;;5.00;4.00;;;;;21.70;44.10;101052.72;5035203;28;45531;-65
2023/07/04 00:38:49;;;;;;;;;4.00;4.00;;;;;21.67;43.83;101052.06;5040982;28;45948;-65
2023/07/04 00:41:21;;;;;;;;;9.00;5.00;;;;;21.70;44.21;101050.00;5027355;28;45517;-65
2023/07/04 00:44:47;;;;;;;;;5.00;4.00;;;;;21.76;44.15;101073.97;5039565;28;45605;-65
2023/07/04 00:47:04;;;;;;;;;7.75;7.75;;;;;21.77;44.38;101067.56;5026139;28;45423;-65
2023/07/04 00:49:41;;;;;;;;;8.00;8.00;;;;;21.60;44.01;101047.09;5032941;28;45501;-65
2023/07/04 00:52:15;;;;;;;;;5.25;3.25;;;;;21.76;43.86;101079.41;5034003;28;45439;-65
2023/07/04 00:54:44;;;;;;;;;9.25;5.75;;;;;21.65;44.52;101063.03;5039886;28;45320;-65
2023/07/04 00:57:12;;;;;;;;;7.50;5.25;;;;;21.50;44.52;101050.59;5036762;28;45616;-65
2023/07/04 00:59:47;;;;;;;;;6.00;4.50;;;;;21.58;44.39;101067.19;5028135;28;45845;-65
2023/07/04 01:02:19;;;;;;;;;7.25;4.00;;;;;21.35;44.88;101030.81;5033446;28;45518;-65
2023/07/04 01:04:48;;;;;;;;;6.50;5.00;;;;;21.65;44.47;101085.66;5040249;28;45967;-65
2023/07/04 01:07:22;;;;;;;;;3.50;3.50;;;;;21.65;45.11;101085.66;5025872;28;46457;-65
2023/07/04 01:09:57;;;;;;;;;6.00;4.00;;;;;21.50;44.90;101065.06;5032059;28;45683;-65
2023/07/04 01:12:27;;;;;;;;;4.00;4.00;;;;;21.43;44.48;101064.59;5039697;28;45451;-65
2023/07/04 01:14:55;;;;;;;;;3.25;3.25;;;;;21.56;44.99;101082.75;5035922;28;45727;-65
2023/07/04 01:17:20;;;;;;;;;3.25;3.00;;;;;21.55;44.52;101083.72;5009740;28;46684;-65
2023/07/04 01:19:46;;;;;;;;;2.50;2.25;;;;;21.45;45.11;101061.75;5035925;28;46899;-65
2023/07/04 01:22:40;;;;;;;;;3.50;3.00;;;;;21.57;44.58;101088.06;5034898;28;45444;-65
2023/07/04 01:25:20;;;;;;;;;4.00;3.75;;;;;21.38;44.91;101053.19;5031153;28;45802;-65
2023/07/04 01:27:47;;;;;;;;;2.75;2.00;;;;;21.41;45.16;101052.97;5029725;28;46714;-65
2023/07/04 01:30:14;;;;;;;;;4.50;3.50;;;;;21.56;45.15;101089.03;5035395;28;45503;-65
2023/07/04 01:32:42;;;;;;;;;4.00;3.50;;;;;21.45;45.01;101075.34;5038712;28;45923;-65
2023/07/04 01:35:11;;;;;;;;;3.75;2.50;;;;;21.51;45.46;101095.78;5036427;28;45380;-65
2023/07/04 01:37:36;;;;;;;;;3.50;2.50;;;;;21.41;45.40;101080.13;5017778;28;47245;-65
2023/07/04 01:40:07;;;;;;;;;2.75;1.75;;;;;21.33;45.53;101079.81;5032643;28;45380;-65
2023/07/04 01:42:33;;;;;;;;;3.75;3.75;;;;;21.48;45.51;101099.59;5033510;28;45471;-65
2023/07/04 01:45:03;;;;;;;;;2.75;2.50;;;;;21.40;45.08;101089.28;5038541;28;45533;-65
2023/07/04 01:47:31;;;;;;;;;3.25;3.00;;;;;21.14;45.57;101047.72;5025488;28;47956;-65
2023/07/04 01:49:57;;;;;;;;;2.25;2.25;;;;;21.27;45.42;101070.28;5034289;28;45374;-62
2023/07/04 01:52:30;;;;;;;;;5.25;3.75;;;;;21.45;45.61;101102.50;5016295;28;45450;-63
2023/07/04 01:55:06;;;;;;;;;3.50;2.00;;;;;21.22;45.10;101072.44;5039352;28;45403;-62
2023/07/04 01:57:31;;;;;;;;;2.50;2.50;;;;;21.41;45.06;101092.84;5037615;28;47454;-63
2023/07/04 01:59:56;;;;;;;;;4.00;3.50;;;;;21.23;45.16;101073.31;5028157;28;45485;-65
2023/07/04 02:02:22;;;;;;;;;4.00;3.00;;;;;21.39;45.35;101100.25;5018131;28;45422;-65
2023/07/04 02:04:47;;;;;;;;;3.00;3.00;;;;;21.22;45.57;101069.75;5010391;28;45609;-65
2023/07/04 02:07:13;;;;;;;;;3.75;3.75;;;;;21.16;46.03;101056.59;5022970;28;45501;-65
2023/07/04 02:09:38;;;;;;;;;4.00;4.00;;;;;21.26;45.62;101087.53;5039303;28;45347;-65
2023/07/04 02:12:04;;;;;;;;;2.75;2.75;;;;;21.08;45.55;101059.00;5013365;28;45568;-65
2023/07/04 02:14:29;;;;;;;;;4.00;3.50;;;;;21.29;46.17;101094.59;5020813;28;45527;-65
2023/07/04 02:16:55;;;;;;;;;3.75;3.75;;;;;21.13;46.26;101069.53;5033082;28;47260;-65
2023/07/04 02:19:20;;;;;;;;;3.00;3.00;;;;;20.97;46.19;101054.34;5005599;28;45786;-65
2023/07/04 02:21:46;;;;;;;;;2.75;2.75;;;;;21.06;45.58;101072.66;5021555;28;45457;-65
2023/07/04 02:24:11;;;;;;;;;5.00;3.25;;;;;20.80;46.21;101032.97;5021256;28;45549;-65
2023/07/04 02:26:37;;;;;;;;;4.00;4.00;;;;;20.78;46.63;101033.09;5036346;28;46528;-65
2023/07/04 02:29:02;;;;;;;;;2.50;2.50;;;;;20.83;46.58;101035.47;5038207;28;45467;-65
2023/07/04 02:31:28;;;;;;;;;1.75;1.50;;;;;20.78;46.76;101027.66;5034375;28;45589;-65
2023/07/04 02:33:53;;;;;;;;;4.75;3.75;;;;;21.08;46.74;101083.41;5038376;28;45605;-65
2023/07/04 02:36:20;;;;;;;;;4.00;3.00;;;;;20.79;46.50;101031.25;5036033;28;46117;-65
2023/07/04 02:38:46;;;;;;;;;4.75;4.00;;;;;21.03;46.65;101070.19;5014297;28;45444;-66
2023/07/04 02:41:12;;;;;;;;;2.75;2.50;;;;;20.95;46.60;101066.28;5026889;28;45497;-65
2023/07/04 02:43:38;;;;;;;;;3.75;2.50;;;;;21.08;47.09;101087.03;5037564;28;45495;-65
2023/07/04 02:46:06;;;;;;;;;5.00;2.00;;;;;20.87;46.65;101047.84;5032965;28;45938;-65
2023/07/04 02:48:32;;;;;;;;;3.00;3.00;;;;;20.86;47.32;101048.81;5012963;28;45455;-65
2023/07/04 02:50:59;;;;;;;;;2.75;2.00;;;;;20.95;47.02;101064.44;5031313;28;45500;-65
2023/07/04 02:53:27;;;;;;;;;3.75;3.00;;;;;20.84;47.20;101054.34;5031065;28;45440;-65
2023/07/04 02:55:56;;;;;;;;;2.50;2.50;;;;;20.96;47.45;101071.59;5030840;28;45535;-63
2023/07/04 02:58:24;;;;;;;;;4.00;3.00;;;;;20.90;47.45;101061.19;5033416;28;45427;-63
2023/07/04 03:00:50;;;;;;;;;4.00;3.00;;;;;20.92;47.08;101070.09;5030849;28;45655;-64
2023/07/04 03:03:17;;;;;;;;;4.00;4.00;;;;;20.77;47.71;101046.75;5031991;28;45545;-63
2023/07/04 03:05:46;;;;;;;;;3.00;3.00;;;;;20.64;47.45;101028.63;5036198;28;46497;-63
2023/07/04 03:08:12;;;;;;;;;5.00;5.00;;;;;20.57;47.44;101016.44;5005322;28;45956;-63
2023/07/04 03:10:42;;;;;;;;;2.50;2.50;;;;;20.84;47.70;101070.63;5020194;28;45506;-63
2023/07/04 03:13:17;;;;;;;;;;;;;;;;;;;;;
2023/07/04 03:15:43;;;;;;;;;3.00;1.00;;;;;20.46;47.83;101011.75;5020340;28;74057;-63
2023/07/04 03:18:09;;;;;;;;;3.75;3.75;;;;;20.48;48.05;101017.97;5037107;28;45630;-63
2023/07/04 03:20:34;;;;;;;;;2.00;2.00;;;;;20.54;48.15;101031.06;5032548;28;45389;-63
2023/07/04 03:23:00;;;;;;;;;3.50;3.00;;;;;20.47;48.27;101020.78;5017816;28;45617;-63
2023/07/04 03:25:25;;;;;;;;;2.00;2.00;;;;;20.44;47.92;101015.56;5017754;28;46172;-63
2023/07/04 03:27:51;;;;;;;;;3.75;3.50;;;;;20.64;48.17;101055.75;5037212;28;45501;-63
2023/07/04 03:30:17;;;;;;;;;3.00;3.00;;;;;20.47;48.07;101023.50;5015180;28;45446;-69
2023/07/04 03:32:46;;;;;;;;;3.50;2.50;;;;;20.49;48.24;101021.53;5018189;28;45367;-63
2023/07/04 03:35:11;;;;;;;;;5.00;2.50;;;;;20.48;48.17;101023.38;5019535;28;47123;-63
2023/07/04 03:37:37;;;;;;;;;4.75;2.00;;;;;20.50;48.28;101034.13;5031474;28;45467;-63
2023/07/04 03:40:08;;;;;;;;;2.00;2.00;;;;;20.62;48.09;101052.25;5034696;28;45475;-63
2023/07/04 03:42:35;;;;;;;;;3.75;2.25;;;;;20.44;48.06;101032.69;5031838;28;45340;-63
2023/07/04 03:45:05;;;;;;;;;2.75;2.75;;;;;20.58;48.58;101056.16;5037445;28;46618;-63
2023/07/04 03:47:30;;;;;;;;;5.25;2.00;;;;;20.62;48.31;101059.53;5030210;28;45322;-63
2023/07/04 03:50:03;;;;;;;;;2.50;2.50;;;;;20.52;48.42;101046.59;5015835;28;45601;-63
2023/07/04 03:52:28;;;;;;;;;3.00;3.00;;;;;20.48;48.32;101030.63;5017432;28;45455;-63
2023/07/04 03:54:56;;;;;;;;;3.75;2.75;;;;;20.46;48.32;101030.72;5030877;28;45734;-63
2023/07/04 03:57:21;;;;;;;;;5.25;4.50;;;;;20.47;48.96;101037.03;5033041;28;45661;-63
2023/07/04 03:59:49;;;;;;;;;3.50;3.25;;;;;20.49;48.37;101030.53;5018198;28;46059;-64
2023/07/04 04:02:22;;;;;;;;;3.25;3.00;;;;;20.56;48.53;101044.53;5036918;28;45403;-63
2023/07/04 04:04:48;;;;;;;;;3.25;3.25;;;;;20.59;48.62;101038.03;5037250;28;45268;-63
2023/07/04 04:07:23;;;;;;;;;;;;;;;;;;;;;
2023/07/04 04:09:49;;;;;;;;;4.00;4.00;;;;;20.54;48.31;101046.47;5028572;28;69027;-63
2023/07/04 04:12:15;;;;;;;;;4.50;4.00;;;;;20.22;48.86;100989.09;5030282;28;45736;-63
2023/07/04 04:14:50;;;;;;;;;;;;;;;;;;;;;
2023/07/04 04:17:16;;;;;;;;;5.75;3.25;;;;;20.35;49.06;101015.22;5016695;28;71571;-63
2023/07/04 04:19:42;;;;;;;;;3.00;3.00;;;;;20.47;48.57;101047.88;5034772;28;45684;-63
2023/07/04 04:22:08;;;;;;;;;5.50;3.75;;;;;20.20;48.94;101004.56;5036486;28;45567;-63
2023/07/04 04:24:36;;;;;;;;;2.75;2.75;;;;;20.14;48.85;101005.84;5036012;28;46098;-63
2023/07/04 04:27:03;;;;;;;;;3.25;3.25;;;;;20.26;49.06;101026.69;5005407;28;45571;-63
2023/07/04 04:29:36;;;;;;;;;3.00;2.00;;;;;20.28;48.78;101043.75;5015146;28;45484;-63
2023/07/04 04:32:02;;;;;;;;;5.25;3.50;;;;;20.12;48.83;101034.91;5009356;28;45397;-66
2023/07/04 04:34:27;;;;;;;;;3.25;3.25;;;;;20.31;48.69;101069.75;5030475;28;48137;-65
2023/07/04 04:36:52;;;;;;;;;7.00;4.00;;;;;20.30;49.48;101068.03;5018144;28;45725;-63
2023/07/04 04:39:18;;;;;;;;;4.00;4.00;;;;;20.18;48.89;101045.34;5032240;28;45417;-63
2023/07/04 04:41:43;;;;;;;;;3.00;3.00;;;;;20.06;49.36;101027.19;5023147;28;45657;-63
2023/07/04 04:44:16;;;;;;;;;5.00;4.00;;;;;20.09;49.20;101026.97;5012907;28;48185;-63
2023/07/04 04:46:48;;;;;;;;;5.25;4.25;;;;;20.30;49.66;101063.47;4998071;28;45466;-63
2023/07/04 04:49:17;;;;;;;;;4.25;4.00;;;;;20.21;49.41;101049.66;5032831;28;45575;-63
2023/07/04 04:51:44;;;;;;;;;3.00;3.00;;;;;20.34;49.41;101067.69;5036939;28;45540;-63
2023/07/04 04:54:12;;;;;;;;;1.00;1.00;;;;;20.09;49.82;101021.56;5040999;28;45730;-63
2023/07/04 04:56:40;;;;;;;;;3.00;3.00;;;;;20.19;49.33;101044.34;5022960;28;46275;-63
2023/07/04 04:59:15;;;;;;;;;5.25;4.00;;;;;20.21;49.71;101036.97;5022624;28;45460;-63
2023/07/04 05:01:40;;;;;;;;;3.75;3.75;;;;;20.21;49.63;101038.81;5037931;28;45420;-63
2023/07/04 05:04:06;;;;;;;;;3.25;2.50;;;;;20.24;49.94;101038.63;5039959;28;45591;-63
2023/07/04 05:06:32;;;;;;;;;5.75;4.00;;;;;20.33;49.98;101047.00;5036279;28;45423;-63
2023/07/04 05:09:00;;;;;;;;;7.00;3.25;;;;;20.38;50.02;101060.25;5019778;28;45349;-63
2023/07/04 05:11:25;;;;;;;;;6.25;4.00;;;;;20.33;50.04;101052.44;5034903;28;45538;-63
2023/07/04 05:13:51;;;;;;;;;3.25;3.00;;;;;20.20;49.69;101031.66;5019475;28;48007;-63
2023/07/04 05:16:21;;;;;;;;;5.50;3.75;;;;;20.05;49.88;101022.75;5018202;28;45451;-66
2023/07/04 05:18:53;;;;;;;;;3.25;2.75;;;;;20.29;50.19;101060.88;5024824;28;45421;-65
2023/07/04 05:21:21;;;;;;;;;5.25;4.00;;;;;20.14;50.13;101051.94;5019425;28;45367;-65
2023/07/04 05:23:52;;;;;;;;;5.50;5.00;;;;;20.10;50.25;101039.56;5032610;28;45534;-63
2023/07/04 05:26:21;;;;;;;;;7.25;3.75;;;;;19.99;50.22;101032.16;5033098;28;45480;-63
2023/07/04 05:28:47;;;;;;;;;5.25;3.75;;;;;19.88;50.32;101013.03;5040745;28;45380;-63
2023/07/04 05:31:15;;;;;;;;;4.50;3.25;;;;;20.17;50.71;101063.44;5022264;28;45875;-65
2023/07/04 05:55:08;;;;;;;;;4.50;3.00;;;;;20.18;51.25;101067.03;5322751;23;47197;-84
2023/07/04 05:57:34;;;;;;;;;4.25;4.00;;;;;20.21;51.14;101064.09;4998582;28;45340;-87
2023/07/04 05:59:59;;;;;;;;;5.00;5.00;;;;;20.16;51.83;101058.09;4995428;28;46103;-87
2023/07/04 06:02:25;;;;;;;;;4.75;4.00;;;;;20.21;51.72;101063.22;5007827;28;45483;-87
2023/07/04 06:04:50;;;;;;;;;4.00;4.00;;;;;20.24;51.57;101068.44;4997151;28;47089;-86
2023/07/04 06:07:19;;;;;;;;;4.00;3.25;;;;;20.12;51.36;101049.31;4991497;28;45373;-86
2023/07/04 06:09:44;;;;;;;;;5.50;4.25;;;;;20.18;51.70;101062.47;4996207;28;45451;-86
2023/07/04 06:12:09;;;;;;;;;2.25;2.00;;;;;20.24;51.55;101066.59;4967896;28;45710;-86
2023/07/04 06:14:37;;;;;;;;;3.00;3.00;;;;;20.19;51.40;101052.47;4982558;28;47013;-86
2023/07/04 06:17:04;;;;;;;;;4.00;3.75;;;;;20.26;51.73;101058.34;4985997;28;45794;-86
2023/07/04 06:19:30;;;;;;;;;3.50;3.50;;;;;20.28;51.56;101056.41;4975567;28;45609;-87
2023/07/04 06:21:55;;;;;;;;;2.75;2.75;;;;;20.29;51.54;101061.72;4984707;28;45304;-87
2023/07/04 06:24:22;;;;;;;;;7.00;4.00;;;;;20.28;51.17;101049.16;4964258;28;48142;-86
2023/07/04 06:26:48;;;;;;;;;2.75;2.75;;;;;20.22;51.43;101038.72;4994676;28;45712;-87
2023/07/04 06:29:14;;;;;;;;;4.25;4.25;;;;;20.18;51.45;101027.22;4971307;28;45447;-87
2023/07/04 06:31:42;;;;;;;;;3.00;3.00;;;;;20.35;51.50;101049.59;4981907;28;45264;-87
2023/07/04 06:34:08;;;;;;;;;6.00;4.00;;;;;20.33;51.77;101041.56;4964578;28;48218;-88
2023/07/04 06:36:33;;;;;;;;;5.75;3.00;;;;;20.40;51.46;101051.97;4987576;28;46396;-87
2023/07/04 06:39:02;;;;;;;;;4.75;3.25;;;;;20.36;51.41;101035.06;4996751;28;45377;-88
2023/07/04 06:41:28;;;;;;;;;4.00;3.75;;;;;20.33;51.32;101032.56;4999965;28;45492;-84
2023/07/04 06:43:53;;;;;;;;;3.75;3.75;;;;;20.25;51.13;101022.25;4978089;28;47281;-84
2023/07/04 06:46:20;;;;;;;;;5.75;4.75;;;;;20.35;51.45;101046.91;4976800;28;45379;-83
2023/07/04 06:48:50;;;;;;;;;3.75;3.25;;;;;20.34;51.31;101054.13;4994610;28;45531;-84
2023/07/04 06:51:17;;;;;;;;;4.50;4.00;;;;;20.34;51.55;101061.41;4982724;28;45299;-83
2023/07/04 06:53:43;;;;;;;;;5.25;3.75;;;;;20.32;51.20;101071.50;4985982;28;47114;-84
2023/07/04 06:56:14;;;;;;;;;3.50;3.50;;;;;20.29;51.32;101067.16;4969250;28;45505;-83
2023/07/04 06:58:42;;;;;;;;;4.25;4.25;;;;;20.24;51.24;101058.47;4995622;28;45475;-84
2023/07/04 07:01:09;;;;;;;;;5.25;5.25;;;;;20.19;51.38;101052.47;4999201;28;45570;-84
2023/07/04 07:03:35;;;;;;;;;4.75;4.75;;;;;20.32;51.82;101076.91;4980783;28;48353;-82
2023/07/04 07:06:04;;;;;;;;;5.00;3.50;;;;;20.34;51.18;101078.53;4997665;28;45288;-82
2023/07/04 07:08:30;;;;;;;;;5.00;4.00;;;;;20.36;50.75;101083.84;4966017;28;45454;-82
2023/07/04 07:11:01;;;;;;;;;7.50;5.50;;;;;20.32;51.00;101075.06;4994168;28;45436;-82
2023/07/04 07:13:27;;;;;;;;;5.75;5.75;;;;;20.37;51.38;101080.19;4994091;28;45206;-82
2023/07/04 07:16:05;;;;;;;;;4.50;4.50;;;;;20.38;51.08;101071.09;4994048;28;45467;-82
2023/07/04 07:18:32;;;;;;;;;3.50;2.75;;;;;20.48;51.51;101077.63;5001456;28;45361;-82
2023/07/04 07:20:58;;;;;;;;;5.00;4.50;;;;;20.48;51.26;101077.63;4980963;28;45409;-82
2023/07/04 07:23:24;;;;;;;;;2.75;2.25;;;;;20.46;50.89;101062.41;4998690;28;45441;-82
2023/07/04 07:26:00;;;;;;;;;8.00;4.50;;;;;20.57;51.27;101073.38;4989742;28;45310;-83
2023/07/04 07:28:27;;;;;;;;;4.00;3.00;;;;;20.62;50.73;101079.38;4994236;28;45468;-83
2023/07/04 07:31:09;;;;;;;;;5.50;5.00;;;;;20.58;50.92;101066.13;4993349;28;45740;-83
2023/07/04 07:33:36;;;;;;;;;5.50;4.00;;;;;20.70;50.94;101081.59;4983280;28;46235;-83
2023/07/04 07:36:32;;;;;;;;;5.75;5.50;;;;;20.65;50.66;101065.63;4991056;28;45495;-83
2023/07/04 07:39:00;;;;;;;;;7.25;5.50;;;;;20.76;50.69;101081.13;4990825;28;45372;-83
2023/07/04 07:41:28;;;;;;;;;5.00;4.50;;;;;20.71;50.81;101069.75;4992623;28;46601;-83
2023/07/04 07:43:53;;;;;;;;;6.50;3.50;;;;;20.76;50.80;101069.44;4986588;28;48325;-83
2023/07/04 07:46:19;;;;;;;;;5.00;5.00;;;;;20.72;51.26;101069.63;4995262;28;45322;-83
2023/07/04 07:48:45;;;;;;;;;7.00;6.00;;;;;20.75;50.98;101067.69;4989675;28;45359;-83
2023/07/04 07:51:12;;;;;;;;;5.00;5.00;;;;;20.80;50.55;101074.53;4993190;28;45442;-83
2023/07/04 07:53:39;;;;;;;;;6.50;5.00;;;;;20.80;50.83;101068.22;4989843;28;45931;-83
2023/07/04 07:56:06;;;;;;;;;6.00;5.00;;;;;20.75;50.04;101052.28;4995419;28;45630;-82
2023/07/04 07:58:32;;;;;;;;;17.00;9.00;;;;;20.82;50.05;101052.72;4985750;28;45507;-84
2023/07/04 08:00:58;;;;;;;;;3.00;2.25;;;;;20.88;50.07;101057.69;4988447;28;45303;-85
2023/07/04 08:03:23;;;;;;;;;5.00;3.75;;;;;20.81;50.01;101048.25;4962463;28;46991;-84
2023/07/04 08:05:49;;;;;;;;;7.50;4.00;;;;;20.91;50.03;101057.50;4984915;28;45571;-84
2023/07/04 08:08:14;;;;;;;;;5.00;4.00;;;;;20.94;50.07;101061.84;4969355;28;45362;-85
2023/07/04 08:10:41;;;;;;;;;5.75;5.50;;;;;20.89;50.01;101043.16;4978907;28;45323;-85
2023/07/04 08:13:08;;;;;;;;;4.00;3.75;;;;;20.99;50.34;101041.53;4990425;28;48129;-85
2023/07/04 08:15:33;;;;;;;;;5.25;4.25;;;;;21.05;49.78;101038.38;4989126;28;45395;-85
2023/07/04 08:18:04;;;;;;;;;3.00;2.25;;;;;21.07;49.52;101036.41;4971717;28;45218;-85
2023/07/04 08:20:29;;;;;;;;;7.00;4.75;;;;;20.87;50.07;100999.88;4983690;28;45373;-85
2023/07/04 08:22:54;;;;;;;;;3.50;3.50;;;;;21.16;49.34;101044.88;4994780;28;45358;-85
2023/07/04 08:25:20;;;;;;;;;3.00;3.00;;;;;21.05;49.02;101019.38;4984067;28;45405;-84
2023/07/04 08:27:45;;;;;;;;;2.75;2.75;;;;;21.18;48.33;101035.63;4993305;28;54370;-85
2023/07/04 08:30:10;;;;;;;;;6.75;4.75;;;;;21.27;48.37;101037.69;4993500;28;45327;-85
2023/07/04 08:32:36;;;;;;;;;5.00;4.00;;;;;21.31;48.36;101041.03;4994814;28;47388;-84
2023/07/04 08:35:03;;;;;;;;;4.50;3.25;;;;;21.18;48.28;101005.78;4991913;28;45280;-85
2023/07/04 08:37:28;;;;;;;;;7.00;4.00;;;;;21.27;48.62;101021.41;4995379;28;45438;-83
2023/07/04 08:39:55;;;;;;;;;6.25;3.75;;;;;21.34;48.10;101035.41;4997350;28;45461;-82
2023/07/04 08:42:24;;;;;;;;;2.75;2.25;;;;;21.37;47.68;101028.88;4991172;28;45987;-83
2023/07/04 08:44:52;;;;;;;;;3.25;3.25;;;;;21.41;47.38;101033.97;5000189;28;45836;-82
2023/07/04 08:47:25;;;;;;;;;3.50;3.00;;;;;21.49;47.47;101035.28;4981176;28;45617;-82
2023/07/04 08:49:55;;;;;;;;;3.75;3.00;;;;;21.51;47.73;101033.31;4972105;28;45322;-82
2023/07/04 08:52:34;;;;;;;;;6.25;5.00;;;;;21.55;47.34;101018.53;4991784;28;45708;-85
2023/07/04 08:54:59;;;;;;;;;5.50;5.00;;;;;21.50;47.66;100994.44;4995195;28;45390;-84
2023/07/04 08:57:39;;;;;;;;;4.00;4.00;;;;;21.64;47.74;101012.41;4997464;28;45291;-85
2023/07/04 09:00:39;;;;;;;;;5.75;4.00;;;;;21.67;47.75;101014.03;4997746;28;45437;-85
2023/07/04 09:03:04;;;;;;;;;2.75;2.75;;;;;21.71;47.34;101010.97;4936765;28;46642;-82
2023/07/04 09:05:43;;;;;;;;;4.00;3.33;;;;;21.77;48.08;101023.25;4997809;28;45494;-84
2023/07/04 09:08:32;;;;;;;;;4.00;4.00;;;;;21.84;47.98;101024.50;5000515;28;45426;-85
2023/07/04 09:11:08;;;;;;;;;4.00;4.00;;;;;21.88;47.46;101017.00;4983973;28;45473;-84
2023/07/04 09:13:42;;;;;;;;;3.25;3.25;;;;;21.95;47.48;101015.53;4989206;28;46308;-85
2023/07/04 09:16:12;;;;;;;;;3.00;3.00;;;;;22.01;48.22;101013.22;4991926;28;45662;-84
2023/07/04 09:18:57;;;;;;;;;3.50;3.50;;;;;21.94;48.09;100998.34;4978098;28;45349;-83
2023/07/04 09:21:25;;;;;;;;;6.00;5.00;;;;;22.10;47.64;101013.50;4990451;28;45528;-83
2023/07/04 09:23:54;;;;;;;;;4.50;4.50;;;;;22.14;48.55;101021.31;4989577;28;47217;-82
2023/07/04 09:26:24;;;;;;;;;6.00;4.00;;;;;22.10;48.13;100998.06;4987561;28;45478;-83
2023/07/04 09:28:51;;;;;;;;;6.75;4.50;;;;;22.23;47.70;100997.97;4986130;28;45674;-82
2023/07/04 09:31:23;;;;;;;;;4.00;3.00;;;;;22.28;47.55;101000.34;4986396;28;45339;-84
2023/07/04 09:33:52;;;;;;;;;5.25;3.75;;;;;22.32;47.79;100997.28;4963501;28;47584;-84
2023/07/04 09:36:19;;;;;;;;;6.75;5.25;;;;;22.34;48.04;100989.88;4964772;28;45462;-84
2023/07/04 09:39:00;;;;;;;;;8.75;4.75;;;;;22.43;48.73;100993.72;4985590;28;45404;-84
2023/07/04 09:41:29;;;;;;;;;7.50;6.00;;;;;22.48;47.46;100990.66;4976366;28;45467;-81
2023/07/04 09:43:56;;;;;;;;;7.00;5.50;;;;;22.55;47.27;100994.59;4993989;28;45484;-81
2023/07/04 09:46:22;;;;;;;;;4.75;4.25;;;;;22.58;47.27;101003.38;4987534;28;45532;-82
2023/07/04 09:48:47;;;;;;;;;9.00;4.25;;;;;22.51;47.03;100979.53;4993006;28;47004;-83
2023/07/04 09:51:29;;;;;;;;;6.50;4.25;;;;;22.67;46.98;101004.53;4983882;28;45299;-82
2023/07/04 09:54:11;;;;;;;;;5.50;5.50;;;;;22.73;46.45;101003.16;4994339;28;45356;-82
2023/07/04 09:56:36;;;;;;;;;5.75;4.00;;;;;22.69;46.09;100988.94;4985760;28;45738;-82
2023/07/04 09:59:15;;;;;;;;;5.00;4.00;;;;;22.73;46.71;100989.56;4985928;28;45501;-83
2023/07/04 10:01:44;;;;;;;;;4.00;4.00;;;;;22.84;46.41;100995.03;4977344;28;45626;-83
2023/07/04 10:04:11;;;;;;;;;5.00;4.00;;;;;22.81;46.29;100978.94;5004000;28;46269;-83
2023/07/04 10:06:38;;;;;;;;;4.75;4.00;;;;;22.91;46.65;100993.53;4992064;28;45596;-83
2023/07/04 10:09:15;;;;;;;;;6.00;6.00;;;;;22.96;46.96;100990.44;4981707;28;45325;-83
2023/07/04 10:11:41;;;;;;;;;3.25;3.25;;;;;22.92;46.85;100968.06;4997183;28;45364;-83
2023/07/04 10:14:10;;;;;;;;;5.50;4.75;;;;;23.06;46.49;100982.41;4994994;28;45461;-83
2023/07/04 10:16:43;;;;;;;;;6.75;6.00;;;;;23.05;46.69;100967.91;4991265;28;45657;-83
2023/07/04 10:19:10;;;;;;;;;5.50;5.50;;;;;23.03;47.06;100959.00;4962547;28;45317;-82
2023/07/04 10:21:40;;;;;;;;;3.50;3.00;;;;;23.17;46.95;100976.97;4987540;28;45420;-84
2023/07/04 10:24:07;;;;;;;;;4.00;4.00;;;;;23.05;46.43;100945.25;4997740;28;45379;-86
2023/07/04 10:26:35;;;;;;;;;11.25;7.00;;;;;23.16;46.67;100960.78;4990075;28;45509;-86
2023/07/04 10:29:03;;;;;;;;;4.75;4.75;;;;;23.26;46.70;100967.19;4976950;28;45346;-86
2023/07/04 10:31:30;;;;;;;;;10.00;5.00;;;;;23.29;46.85;100959.63;4996360;28;45355;-87
2023/07/04 10:34:03;;;;;;;;;4.00;4.00;;;;;23.43;46.66;100961.19;4988575;28;45339;-86
2023/07/04 10:36:33;;;;;;;;;5.25;5.25;;;;;23.47;46.47;100956.34;4983615;28;45345;-87
2023/07/04 10:39:11;;;;;;;;;5.75;4.75;;;;;23.39;46.46;100928.88;5001206;28;45265;-87
2023/07/04 10:41:41;;;;;;;;;6.50;5.50;;;;;23.43;46.27;100938.53;5001567;28;45473;-87
2023/07/04 10:44:13;;;;;;;;;5.50;5.50;;;;;23.48;46.46;100939.88;4990894;28;45479;-87
2023/07/04 10:46:47;;;;;;;;;8.75;8.25;;;;;23.60;46.33;100950.75;4978372;28;45799;-86
2023/07/04 10:49:18;;;;;;;;;6.75;6.75;;;;;23.63;46.52;100954.06;4980882;28;45513;-86
2023/07/04 10:51:47;;;;;;;;;4.75;4.75;;;;;23.64;46.33;100942.19;4981391;28;45486;-87
2023/07/04 10:54:13;;;;;;;;;7.25;7.00;;;;;23.64;46.14;100935.88;4997521;28;45551;-87
2023/07/04 10:56:45;;;;;;;;;2.75;2.00;;;;;23.65;46.57;100933.00;4979842;28;45467;-87
2023/07/04 10:59:16;;;;;;;;;7.00;5.00;;;;;23.59;46.28;100910.84;4990615;28;45352;-87
2023/07/04 11:01:48;;;;;;;;;5.25;3.75;;;;;23.65;46.51;100900.28;4995876;28;45461;-86
2023/07/04 11:04:23;;;;;;;;;6.00;5.50;;;;;23.72;46.52;100907.97;4999215;28;45446;-86
2023/07/04 11:06:59;;;;;;;;;5.50;4.25;;;;;23.68;45.80;100896.47;4993016;28;45403;-87
2023/07/04 11:09:26;;;;;;;;;5.75;5.00;;;;;23.79;45.91;100907.31;4987494;28;45333;-87
2023/07/04 11:11:59;;;;;;;;;7.50;6.50;;;;;23.83;46.11;100902.50;4991188;28;45475;-87
2023/07/04 11:14:26;;;;;;;;;6.00;6.00;;;;;23.82;46.17;100907.09;4987501;28;46914;-86
2023/07/04 11:16:54;;;;;;;;;6.00;6.00;;;;;23.95;46.07;100917.78;4976449;28;45350;-87
2023/07/04 11:19:22;;;;;;;;;6.00;6.00;;;;;24.00;45.48;100911.94;4982857;28;45374;-87
2023/07/04 11:22:00;;;;;;;;;4.75;4.50;;;;;24.02;45.40;100904.47;4973605;28;45458;-87
2023/07/04 11:24:33;;;;;;;;;5.00;5.00;;;;;24.05;45.73;100907.81;4964730;28;47182;-87
2023/07/04 11:27:00;;;;;;;;;6.75;6.25;;;;;24.02;46.10;100888.13;4987657;28;45648;-87
2023/07/04 11:29:44;;;;;;;;;10.00;7.75;;;;;24.09;45.74;100897.53;4997710;28;46121;-87
2023/07/04 11:32:11;;;;;;;;;6.50;6.00;;;;;24.15;45.24;100893.38;4996091;28;45399;-87
2023/07/04 11:34:46;;;;;;;;;9.25;6.75;;;;;24.12;45.37;100878.13;4982064;28;45578;-87
2023/07/04 11:37:16;;;;;;;;;5.75;5.50;;;;;24.22;45.57;100883.66;4974502;28;45389;-87
2023/07/04 11:39:46;;;;;;;;;4.00;3.25;;;;;24.20;44.80;100870.16;4993808;28;45574;-87
2023/07/04 11:42:36;;;;;;;;;5.50;5.50;;;;;24.18;44.64;100863.13;4990243;28;45433;-87
2023/07/04 11:45:06;;;;;;;;;9.00;6.25;;;;;24.33;44.72;100882.72;4977939;28;47348;-86
2023/07/04 11:47:47;;;;;;;;;7.75;6.25;;;;;24.32;44.90;100876.38;5005603;28;45561;-87
2023/07/04 11:50:16;;;;;;;;;8.00;5.75;;;;;24.19;45.04;100849.34;4990453;28;45346;-87
2023/07/04 11:52:49;;;;;;;;;7.00;6.00;;;;;24.26;45.24;100855.13;4998230;28;45518;-87
2023/07/04 11:55:21;;;;;;;;;4.00;4.00;;;;;24.37;45.42;100868.69;4993917;28;45324;-87
2023/07/04 11:58:16;;;;;;;;;8.00;5.25;;;;;24.36;46.35;100858.75;4977066;28;45438;-86
2023/07/04 12:00:48;;;;;;;;;6.75;6.00;;;;;24.45;45.77;100857.06;4977240;28;45451;-86